createdAt,value
2023-05-09T00:01:12.796Z,0.40
2023-05-09T00:03:41.790Z,0.40
2023-05-09T00:06:11.397Z,0.52
2023-05-09T00:08:39.347Z,0.43
2023-05-09T00:11:07.316Z,0.50
2023-05-09T00:13:35.741Z,0.40
2023-05-09T00:16:04.258Z,0.50
2023-05-09T00:18:33.999Z,0.40
2023-05-09T00:23:31.102Z,0.50
2023-05-09T00:25:59.643Z,0.50
2023-05-09T00:28:27.682Z,0.40
2023-05-09T00:30:55.682Z,0.40
2023-05-09T00:33:26.747Z,0.40
2023-05-09T00:35:56.206Z,0.40
2023-05-09T00:38:24.581Z,0.40
2023-05-09T00:40:52.873Z,0.30
2023-05-09T00:43:22.217Z,0.30
2023-05-09T00:45:50.849Z,0.30
2023-05-09T00:48:19.434Z,0.40
2023-05-09T00:50:52.642Z,0.40
2023-05-09T00:53:22.408Z,0.40
2023-05-09T00:58:19.352Z,0.50
2023-05-09T01:00:47.916Z,0.47
2023-05-09T01:03:16.208Z,0.50
2023-05-09T01:05:56.883Z,0.30
2023-05-09T01:08:44.920Z,0.40
2023-05-09T01:11:23.770Z,0.40
2023-05-09T01:14:09.418Z,0.40
2023-05-09T01:16:46.952Z,0.30
2023-05-09T01:19:45.892Z,0.40
2023-05-09T01:22:17.362Z,0.40
2023-05-09T01:25:15.472Z,0.40
2023-05-09T01:27:58.700Z,0.40
2023-05-09T01:30:31.285Z,0.40
2023-05-09T01:33:03.131Z,0.40
2023-05-09T01:35:36.995Z,0.40
2023-05-09T01:38:13.997Z,0.30
2023-05-09T01:40:45.382Z,0.40
2023-05-09T01:43:17.712Z,0.30
2023-05-09T01:45:49.648Z,0.40
2023-05-09T01:48:20.944Z,0.40
2023-05-09T01:50:50.118Z,0.30
2023-05-09T01:53:19.510Z,0.45
2023-05-09T01:55:49.940Z,0.40
2023-05-09T01:58:19.760Z,0.50
2023-05-09T02:00:50.953Z,0.40
2023-05-09T02:03:19.886Z,0.40
2023-05-09T02:05:49.884Z,0.47
2023-05-09T02:08:21.750Z,0.40
2023-05-09T02:10:50.656Z,0.43
2023-05-09T02:13:18.776Z,0.40
2023-05-09T02:15:48.740Z,0.40
2023-05-09T02:18:16.813Z,0.30
2023-05-09T02:20:44.802Z,0.38
2023-05-09T02:23:13.284Z,0.50
2023-05-09T02:25:42.350Z,0.45
2023-05-09T02:28:12.157Z,0.50
2023-05-09T02:30:44.130Z,0.40
2023-05-09T02:33:14.986Z,0.40
2023-05-09T02:35:46.271Z,0.30
2023-05-09T02:38:15.315Z,0.40
2023-05-09T02:40:45.197Z,0.40
2023-05-09T02:43:15.001Z,0.50
2023-05-09T02:48:13.094Z,0.50
2023-05-09T02:50:42.842Z,0.50
2023-05-09T02:55:38.839Z,0.50
2023-05-09T02:58:14.105Z,0.50
2023-05-09T03:00:43.554Z,0.38
2023-05-09T03:03:13.000Z,0.40
2023-05-09T03:05:41.068Z,0.40
2023-05-09T03:08:09.012Z,0.50
2023-05-09T03:10:36.970Z,0.40
2023-05-09T03:13:05.058Z,0.40
2023-05-09T03:15:33.218Z,0.50
2023-05-09T03:18:01.201Z,0.45
2023-05-09T03:20:30.560Z,0.45
2023-05-09T03:22:58.471Z,0.40
2023-05-09T03:25:27.192Z,0.40
2023-05-09T03:27:55.150Z,0.40
2023-05-09T03:30:23.090Z,0.40
2023-05-09T03:32:51.103Z,0.40
2023-05-09T03:35:19.433Z,0.40
2023-05-09T03:37:48.644Z,0.40
2023-05-09T03:40:16.747Z,0.40
2023-05-09T03:42:44.708Z,0.40
2023-05-09T03:45:13.504Z,0.50
2023-05-09T03:47:41.551Z,0.33
2023-05-09T03:50:11.341Z,0.40
2023-05-09T03:55:10.157Z,0.50
2023-05-09T03:57:38.054Z,0.40
2023-05-09T04:00:08.241Z,0.35
2023-05-09T04:02:36.368Z,0.30
2023-05-09T04:05:04.847Z,0.45
2023-05-09T04:07:32.895Z,0.38
2023-05-09T04:10:01.421Z,0.40
2023-05-09T04:12:30.662Z,0.25
2023-05-09T04:14:58.594Z,0.40
2023-05-09T04:17:26.948Z,0.30
2023-05-09T04:19:55.025Z,0.40
2023-05-09T04:22:22.960Z,0.40
2023-05-09T04:24:51.187Z,0.40
2023-05-09T04:27:19.089Z,0.40
2023-05-09T04:29:49.277Z,0.30
2023-05-09T04:32:17.593Z,0.35
2023-05-09T04:34:45.536Z,0.43
2023-05-09T04:37:13.798Z,0.30
2023-05-09T04:39:41.683Z,0.30
2023-05-09T04:42:09.582Z,0.40
2023-05-09T04:44:37.489Z,0.38
2023-05-09T04:47:06.764Z,0.30
2023-05-09T04:49:34.676Z,0.38
2023-05-09T04:52:02.617Z,0.40
2023-05-09T04:54:30.515Z,0.40
2023-05-09T04:57:09.923Z,0.28
2023-05-09T04:59:45.018Z,0.30
2023-05-09T05:02:14.337Z,0.40
2023-05-09T05:04:42.268Z,0.30
2023-05-09T05:07:10.206Z,0.40
2023-05-09T05:09:38.221Z,0.30
2023-05-09T05:12:09.390Z,0.30
2023-05-09T05:14:37.948Z,0.30
2023-05-09T05:17:05.897Z,0.40
2023-05-09T05:19:35.344Z,0.40
2023-05-09T05:22:03.273Z,0.32
2023-05-09T05:24:31.368Z,0.22
2023-05-09T05:26:59.312Z,0.40
2023-05-09T05:29:27.213Z,0.30
2023-05-09T05:31:55.456Z,0.40
2023-05-09T05:34:23.564Z,0.40
2023-05-09T05:36:53.373Z,0.40
2023-05-09T05:41:49.200Z,0.40
2023-05-09T05:44:17.068Z,0.30
2023-05-09T05:46:45.224Z,0.38
2023-05-09T05:49:13.163Z,0.40
2023-05-09T05:51:41.159Z,0.40
2023-05-09T05:54:11.105Z,0.30
2023-05-09T05:56:39.119Z,0.45
2023-05-09T05:59:07.194Z,0.32
2023-05-09T06:01:35.123Z,0.30
2023-05-09T06:04:03.175Z,0.30
2023-05-09T06:06:31.325Z,0.30
2023-05-09T06:08:59.240Z,0.40
2023-05-09T06:11:28.506Z,0.40
2023-05-09T06:13:56.462Z,0.30
2023-05-09T06:16:24.544Z,0.38
2023-05-09T06:18:55.559Z,0.30
2023-05-09T06:21:24.169Z,0.30
2023-05-09T06:24:07.890Z,0.38
2023-05-09T06:26:41.522Z,0.30
2023-05-09T06:29:09.873Z,0.30
2023-05-09T06:31:38.764Z,0.30
2023-05-09T06:34:07.194Z,0.35
2023-05-09T06:36:35.439Z,0.47
2023-05-09T06:39:03.361Z,0.35
2023-05-09T06:41:31.268Z,0.40
2023-05-09T06:44:02.399Z,0.40
2023-05-09T06:46:30.486Z,0.30
2023-05-09T06:48:58.485Z,0.40
2023-05-09T06:51:27.016Z,0.40
2023-05-09T06:53:54.961Z,0.35
2023-05-09T06:56:23.238Z,0.30
2023-05-09T06:58:51.343Z,0.30
2023-05-09T07:01:20.734Z,0.40
2023-05-09T07:03:48.650Z,0.50
2023-05-09T07:06:16.808Z,0.30
2023-05-09T07:08:44.783Z,0.40
2023-05-09T07:11:12.879Z,0.30
2023-05-09T07:13:40.896Z,0.40
2023-05-09T07:16:08.960Z,0.30
2023-05-09T07:18:38.275Z,0.30
2023-05-09T07:21:06.271Z,0.30
2023-05-09T07:23:34.190Z,0.30
2023-05-09T07:26:02.380Z,0.40
2023-05-09T07:28:30.341Z,0.40
2023-05-09T07:30:58.344Z,0.20
2023-05-09T07:33:26.280Z,0.30
2023-05-09T07:35:55.623Z,0.30
2023-05-09T07:38:23.661Z,0.40
2023-05-09T07:40:53.219Z,0.30
2023-05-09T07:43:21.491Z,0.38
2023-05-09T07:45:49.409Z,0.35
2023-05-09T07:48:17.393Z,0.30
2023-05-09T07:50:45.343Z,0.20
2023-05-09T07:53:14.617Z,0.40
2023-05-09T07:55:44.527Z,0.32
2023-05-09T07:58:12.468Z,0.30
2023-05-09T08:00:40.334Z,0.30
2023-05-09T08:03:08.429Z,0.30
2023-05-09T08:05:36.602Z,0.30
2023-05-09T08:08:04.869Z,0.30
2023-05-09T08:10:34.262Z,0.30
2023-05-09T08:13:02.299Z,0.32
2023-05-09T08:15:31.250Z,0.30
2023-05-09T08:17:59.228Z,0.30
2023-05-09T08:20:27.221Z,0.30
2023-05-09T08:22:55.139Z,0.30
2023-05-09T08:25:23.100Z,0.30
2023-05-09T08:27:53.157Z,0.30
2023-05-09T08:30:21.293Z,0.30
2023-05-09T08:32:49.396Z,0.30
2023-05-09T08:35:17.925Z,0.30
2023-05-09T08:37:47.846Z,0.30
2023-05-09T08:40:17.136Z,0.30
2023-05-09T08:42:46.797Z,0.30
2023-05-09T08:45:24.004Z,0.40
2023-05-09T08:47:52.710Z,0.30
2023-05-09T08:50:22.069Z,0.30
2023-05-09T08:52:50.272Z,0.30
2023-05-09T08:55:18.447Z,0.30
2023-05-09T08:57:47.606Z,0.30
2023-05-09T09:00:20.871Z,0.30
2023-05-09T09:02:50.089Z,0.30
2023-05-09T09:05:39.521Z,0.30
2023-05-09T09:08:09.798Z,0.30
2023-05-09T09:10:43.331Z,0.20
2023-05-09T09:13:14.110Z,0.30
2023-05-09T09:15:47.786Z,0.30
2023-05-09T09:18:23.544Z,0.25
2023-05-09T09:20:58.842Z,0.30
2023-05-09T09:23:29.914Z,0.30
2023-05-09T09:26:03.009Z,0.20
2023-05-09T09:28:31.100Z,0.30
2023-05-09T09:36:33.284Z,0.30
2023-05-09T09:39:04.783Z,0.30
2023-05-09T09:41:33.814Z,0.30
2023-05-09T09:44:09.284Z,0.30
2023-05-09T09:46:45.631Z,0.30
2023-05-09T09:49:16.108Z,0.25
2023-05-09T09:51:44.469Z,0.20
2023-05-09T09:54:16.489Z,0.20
2023-05-09T09:56:47.350Z,0.30
2023-05-09T09:59:17.445Z,0.30
2023-05-09T10:02:04.222Z,0.20
2023-05-09T10:04:37.086Z,0.30
2023-05-09T10:07:07.568Z,0.20
2023-05-09T10:09:37.990Z,0.20
2023-05-09T10:12:08.408Z,0.30
2023-05-09T10:14:39.319Z,0.35
2023-05-09T10:17:10.579Z,0.28
2023-05-09T10:19:45.667Z,0.20
2023-05-09T10:22:17.780Z,0.30
2023-05-09T10:24:52.309Z,0.20
2023-05-09T10:27:24.000Z,0.20
2023-05-09T10:30:07.341Z,0.20
2023-05-09T10:32:48.734Z,0.30
2023-05-09T10:35:19.280Z,0.30
2023-05-09T10:37:47.886Z,0.20
2023-05-09T10:40:17.016Z,0.30
2023-05-09T10:42:45.685Z,0.20
2023-05-09T10:45:14.251Z,0.25
2023-05-09T10:47:46.449Z,0.20
2023-05-09T10:50:15.564Z,0.20
2023-05-09T10:53:11.500Z,0.30
2023-05-09T10:55:49.515Z,0.20
2023-05-09T10:58:27.569Z,0.20
2023-05-09T11:00:57.589Z,0.20
2023-05-09T11:03:28.230Z,0.20
2023-05-09T11:05:58.826Z,0.20
2023-05-09T11:08:29.106Z,0.35
2023-05-09T11:11:00.614Z,0.30
2023-05-09T11:13:33.322Z,0.30
2023-05-09T11:16:11.952Z,0.30
2023-05-09T11:18:54.708Z,0.20
2023-05-09T11:21:22.862Z,0.30
2023-05-09T11:23:54.479Z,0.20
2023-05-09T11:26:29.759Z,0.30
2023-05-09T11:29:02.735Z,0.30
2023-05-09T11:31:30.749Z,0.20
2023-05-09T11:34:04.933Z,0.22
2023-05-09T11:36:33.794Z,0.20
2023-05-09T11:39:08.456Z,0.20
2023-05-09T11:41:44.620Z,0.30
2023-05-09T11:44:21.153Z,0.30
2023-05-09T11:46:50.679Z,0.30
2023-05-09T11:49:20.741Z,0.20
2023-05-09T11:51:48.773Z,0.30
2023-05-09T11:54:18.012Z,0.30
2023-05-09T11:56:46.551Z,0.32
2023-05-09T11:59:15.758Z,0.22
2023-05-09T12:01:43.798Z,0.25
2023-05-09T12:04:11.957Z,0.20
2023-05-09T12:06:41.367Z,0.28
2023-05-09T12:09:11.242Z,0.30
2023-05-09T12:14:07.698Z,0.28
2023-05-09T12:16:35.818Z,0.20
2023-05-09T12:19:05.031Z,0.20
2023-05-09T12:21:33.579Z,0.30
2023-05-09T12:24:06.425Z,0.22
2023-05-09T12:26:35.061Z,0.20
2023-05-09T12:29:04.373Z,0.25
2023-05-09T12:31:33.146Z,0.30
2023-05-09T12:34:02.208Z,0.30
2023-05-09T12:36:35.979Z,0.20
2023-05-09T12:39:10.541Z,0.20
2023-05-09T12:41:53.881Z,0.22
2023-05-09T12:44:29.904Z,0.20
2023-05-09T12:47:00.357Z,0.20
2023-05-09T12:49:29.630Z,0.20
2023-05-09T12:52:01.643Z,0.25
2023-05-09T12:54:32.346Z,0.20
2023-05-09T12:57:00.298Z,0.20
2023-05-09T12:59:30.310Z,0.20
2023-05-09T13:02:00.302Z,0.25
2023-05-09T13:04:29.861Z,0.20
2023-05-09T13:06:59.905Z,0.20
2023-05-09T13:09:28.652Z,0.25
2023-05-09T13:11:58.029Z,0.10
2023-05-09T13:14:26.920Z,0.20
2023-05-09T13:16:55.483Z,0.13
2023-05-09T13:19:23.489Z,0.30
2023-05-09T13:21:52.337Z,0.25
2023-05-09T13:24:20.169Z,0.30
2023-05-09T13:26:48.111Z,0.20
2023-05-09T13:29:17.458Z,0.20
2023-05-09T13:31:45.401Z,0.20
2023-05-09T13:34:13.261Z,0.22
2023-05-09T13:36:41.119Z,0.30
2023-05-09T13:39:09.142Z,0.20
2023-05-09T13:41:38.189Z,0.30
2023-05-09T13:44:06.281Z,0.20
2023-05-09T13:46:35.661Z,0.30
2023-05-09T13:49:03.709Z,0.20
2023-05-09T13:51:32.621Z,0.20
2023-05-09T13:54:00.466Z,0.30
2023-05-09T13:56:28.446Z,0.22
2023-05-09T13:58:56.455Z,0.30
2023-05-09T14:01:24.545Z,0.20
2023-05-09T14:03:54.076Z,0.20
2023-05-09T14:06:22.145Z,0.17
2023-05-09T14:08:50.195Z,0.10
2023-05-09T14:11:18.085Z,0.30
2023-05-09T14:13:46.014Z,0.20
2023-05-09T14:16:14.612Z,0.20
2023-05-09T14:18:42.574Z,0.20
2023-05-09T14:21:12.109Z,0.20
2023-05-09T14:23:40.193Z,0.28
2023-05-09T14:26:08.371Z,0.17
2023-05-09T14:28:37.320Z,0.20
2023-05-09T14:31:05.676Z,0.20
2023-05-09T14:33:35.929Z,0.20
2023-05-09T14:36:04.229Z,0.20
2023-05-09T14:38:34.393Z,0.20
2023-05-09T14:41:03.452Z,0.10
2023-05-09T14:43:31.622Z,0.10
2023-05-09T14:46:00.322Z,0.15
2023-05-09T14:48:28.656Z,0.10
2023-05-09T14:50:56.989Z,0.20
2023-05-09T14:53:25.090Z,0.10
2023-05-09T14:55:54.496Z,0.20
2023-05-09T14:58:23.195Z,0.20
2023-05-09T15:00:52.778Z,0.10
2023-05-09T15:05:50.390Z,0.10
2023-05-09T15:08:18.564Z,0.20
2023-05-09T15:10:46.786Z,0.17
2023-05-09T15:13:16.146Z,0.10
2023-05-09T15:15:44.173Z,0.10
2023-05-09T15:18:13.303Z,0.10
2023-05-09T15:20:41.398Z,0.10
2023-05-09T15:23:09.579Z,0.10
2023-05-09T15:25:37.658Z,0.10
2023-05-09T15:28:06.910Z,0.10
2023-05-09T15:30:38.775Z,0.10
2023-05-09T15:33:07.245Z,0.20
2023-05-09T15:35:35.377Z,0.20
2023-05-09T15:38:03.452Z,0.10
2023-05-09T15:40:31.428Z,0.17
2023-05-09T15:42:59.579Z,0.10
2023-05-09T15:45:27.647Z,0.13
2023-05-09T15:47:57.075Z,0.10
2023-05-09T15:50:25.161Z,0.20
2023-05-09T15:52:53.208Z,0.10
2023-05-09T15:55:21.395Z,0.10
2023-05-09T15:57:49.336Z,0.10
2023-05-09T16:00:18.280Z,0.10
2023-05-09T16:02:46.740Z,0.10
2023-05-09T16:05:16.188Z,0.10
2023-05-09T16:07:47.900Z,0.10
2023-05-09T16:10:16.273Z,0.10
2023-05-09T16:12:44.355Z,0.10
2023-05-09T16:15:13.045Z,0.10
2023-05-09T16:17:41.106Z,0.10
2023-05-09T16:20:13.470Z,0.10
2023-05-09T16:22:43.401Z,0.10
2023-05-09T16:27:39.790Z,0.10
2023-05-09T16:30:09.597Z,0.10
2023-05-09T16:32:38.078Z,0.10
2023-05-09T16:35:07.619Z,0.10
2023-05-09T16:38:11.478Z,0.10
2023-05-09T16:40:40.675Z,0.10
2023-05-09T16:43:23.082Z,0.10
2023-05-09T16:45:56.370Z,0.10
2023-05-09T16:52:30.668Z,0.10
2023-05-09T16:55:00.269Z,0.13
2023-05-09T16:57:28.154Z,0.20
2023-05-09T16:59:56.211Z,0.10
2023-05-09T17:02:24.174Z,0.20
2023-05-09T17:04:52.474Z,0.17
2023-05-09T17:07:20.443Z,0.20
2023-05-09T17:09:49.473Z,0.10
2023-05-09T17:12:18.792Z,0.15
2023-05-09T17:14:47.021Z,0.20
2023-05-09T17:17:17.469Z,0.20
2023-05-09T17:19:45.580Z,0.10
2023-05-09T17:22:13.598Z,0.20
2023-05-09T17:24:41.651Z,0.20
2023-05-09T17:27:10.717Z,0.20
2023-05-09T17:29:40.040Z,0.30
2023-05-09T17:32:08.274Z,0.30
2023-05-09T17:34:37.877Z,0.20
2023-05-09T17:37:07.232Z,0.30
2023-05-09T17:39:36.016Z,0.30
2023-05-09T17:42:04.084Z,0.20
2023-05-09T17:44:32.753Z,0.20
2023-05-09T17:47:02.590Z,0.22
2023-05-09T17:51:59.730Z,0.20
2023-05-09T17:54:27.962Z,0.20
2023-05-09T17:56:59.204Z,0.20
2023-05-09T17:59:27.176Z,0.30
2023-05-09T18:01:55.504Z,0.20
2023-05-09T18:04:25.933Z,0.20
2023-05-09T18:06:54.115Z,0.20
2023-05-09T18:09:22.679Z,0.20
2023-05-09T18:11:50.628Z,0.20
2023-05-09T18:14:18.707Z,0.20
2023-05-09T18:17:12.314Z,0.30
2023-05-09T18:19:42.223Z,0.20
2023-05-09T18:22:10.291Z,0.20
2023-05-09T18:24:38.384Z,0.20
2023-05-09T18:27:06.378Z,0.20
2023-05-09T18:29:34.417Z,0.25
2023-05-09T18:32:02.964Z,0.28
2023-05-09T18:34:30.868Z,0.30
2023-05-09T18:37:00.200Z,0.30
2023-05-09T18:39:28.081Z,0.30
2023-05-09T18:41:56.044Z,0.20
2023-05-09T18:44:24.514Z,0.30
2023-05-09T18:46:53.510Z,0.20
2023-05-09T18:49:22.469Z,0.28
2023-05-09T18:51:50.488Z,0.37
2023-05-09T18:54:20.317Z,0.30
2023-05-09T18:59:17.788Z,0.40
2023-05-09T19:01:45.661Z,0.28
2023-05-09T19:04:14.961Z,0.30
2023-05-09T19:06:43.936Z,0.40
2023-05-09T19:09:12.524Z,0.30
2023-05-09T19:11:41.880Z,0.30
2023-05-09T19:14:09.856Z,0.20
2023-05-09T19:16:37.799Z,0.30
2023-05-09T19:19:07.432Z,0.20
2023-05-09T19:21:37.010Z,0.20
2023-05-09T19:24:07.122Z,0.30
2023-05-09T19:26:36.346Z,0.22
2023-05-09T19:29:09.072Z,0.30
2023-05-09T19:31:39.386Z,0.20
2023-05-09T19:34:08.601Z,0.30
2023-05-09T19:36:36.554Z,0.20
2023-05-09T19:39:09.557Z,0.30
2023-05-09T19:41:37.720Z,0.20
2023-05-09T19:44:07.908Z,0.22
2023-05-09T19:46:37.896Z,0.20
2023-05-09T19:49:06.165Z,0.30
2023-05-09T19:51:34.260Z,0.30
2023-05-09T19:54:02.746Z,0.30
2023-05-09T19:56:30.977Z,0.20
2023-05-09T19:58:58.888Z,0.30
2023-05-09T20:01:28.384Z,0.30
2023-05-09T20:03:56.843Z,0.20
2023-05-09T20:06:25.842Z,0.40
2023-05-09T20:08:53.851Z,0.30
2023-05-09T20:11:22.346Z,0.30
2023-05-09T20:13:50.248Z,0.20
2023-05-09T20:16:19.949Z,0.20
2023-05-09T20:21:20.025Z,0.20
2023-05-09T20:23:48.073Z,0.30
2023-05-09T20:26:16.028Z,0.30
2023-05-09T20:28:44.059Z,0.30
2023-05-09T20:31:11.950Z,0.40
2023-05-09T20:33:40.874Z,0.30
2023-05-09T20:36:11.141Z,0.23
2023-05-09T20:38:39.106Z,0.40
2023-05-09T20:41:07.051Z,0.20
2023-05-09T20:43:34.931Z,0.20
2023-05-09T20:46:03.093Z,0.22
2023-05-09T20:48:31.164Z,0.30
2023-05-09T20:50:59.161Z,0.40
2023-05-09T20:53:31.666Z,0.30
2023-05-09T20:56:00.276Z,0.30
2023-05-09T20:58:31.126Z,0.30
2023-05-09T21:00:59.270Z,0.40
2023-05-09T21:03:27.538Z,0.20
2023-05-09T21:05:55.782Z,0.30
2023-05-09T21:08:24.129Z,0.40
2023-05-09T21:10:54.343Z,0.30
2023-05-09T21:13:22.493Z,0.30
2023-05-09T21:15:51.157Z,0.30
2023-05-09T21:18:19.985Z,0.30
2023-05-09T21:20:47.911Z,0.40
2023-05-09T21:23:15.816Z,0.40
2023-05-09T21:25:43.841Z,0.30
2023-05-09T21:28:14.552Z,0.20
2023-05-09T21:30:42.544Z,0.35
2023-05-09T21:33:10.666Z,0.40
2023-05-09T21:35:38.689Z,0.40
2023-05-09T21:38:06.586Z,0.20
2023-05-09T21:40:34.495Z,0.22
2023-05-09T21:43:02.363Z,0.28
2023-05-09T21:45:31.724Z,0.40
2023-05-09T21:47:59.675Z,0.30
2023-05-09T21:50:27.629Z,0.30
2023-05-09T21:52:56.604Z,0.30
2023-05-09T21:55:24.804Z,0.20
2023-05-09T21:57:52.734Z,0.30
2023-05-09T22:00:21.120Z,0.28
2023-05-09T22:02:50.492Z,0.22
2023-05-09T22:05:18.683Z,0.30
2023-05-09T22:07:46.601Z,0.20
2023-05-09T22:10:14.767Z,0.40
2023-05-09T22:12:42.943Z,0.47
2023-05-09T22:15:11.403Z,0.32
2023-05-09T22:17:39.346Z,0.40
2023-05-09T22:20:10.293Z,0.38
2023-05-09T22:22:38.185Z,0.40
2023-05-09T22:25:07.066Z,0.35
2023-05-09T22:27:35.003Z,0.40
2023-05-09T22:30:03.009Z,0.30
2023-05-09T22:32:31.103Z,0.38
2023-05-09T22:34:59.079Z,0.30
2023-05-09T22:37:28.343Z,0.40
2023-05-09T22:39:56.300Z,0.35
2023-05-09T22:42:24.283Z,0.28
2023-05-09T22:44:52.761Z,0.30
2023-05-09T22:47:20.726Z,0.50
2023-05-09T22:49:50.395Z,0.40
2023-05-09T22:52:18.478Z,0.40
2023-05-09T22:54:47.761Z,0.30
2023-05-09T22:57:18.736Z,0.30
2023-05-09T22:59:47.196Z,0.30
2023-05-09T23:02:15.129Z,0.35
2023-05-09T23:04:43.092Z,0.40
2023-05-09T23:07:11.113Z,0.30
2023-05-09T23:09:39.037Z,0.40
2023-05-09T23:12:10.722Z,0.30
2023-05-09T23:14:38.714Z,0.30
2023-05-09T23:17:06.622Z,0.30
2023-05-09T23:19:34.541Z,0.28
2023-05-09T23:22:02.430Z,0.25
2023-05-09T23:24:30.331Z,0.25
2023-05-09T23:26:58.231Z,0.40
2023-05-09T23:29:27.998Z,0.30
2023-05-09T23:34:23.718Z,0.20
2023-05-09T23:36:51.658Z,0.47
2023-05-09T23:39:19.521Z,0.20
2023-05-09T23:41:47.540Z,0.40
2023-05-09T23:44:15.539Z,0.40
2023-05-09T23:46:44.880Z,0.30
2023-05-09T23:49:14.593Z,0.30
2023-05-09T23:51:42.517Z,0.25
2023-05-09T23:54:10.480Z,0.30
2023-05-09T23:56:38.472Z,0.30
2023-05-09T23:59:06.341Z,0.35
